Time;durP1;ratioP1;P1;durP2;ratioP2;P2;SDS_P1;SDS_P2;PMS_P1;PMS_P2;Temp;Humidity;BMP_temperature;BMP_pressure;BME280_temperature;BME280_humidity;BME280_pressure;Samples;Min_cycle;Max_cycle;Signal;HPM_P1;HPM_P2
2021/08/14 00:00:07;;;;;;;11.22;10.05;;;;;;;16.48;72.26;97755.73;1726051;81;25770;-83
2021/08/14 00:02:35;;;;;;;15.75;10.38;;;;;;;16.49;72.40;97750.58;1739151;81;25766;-83
2021/08/14 00:05:04;;;;;;;13.10;10.05;;;;;;;16.50;72.50;97750.34;1727850;81;25682;-83
2021/08/14 00:07:30;;;;;;;11.97;9.95;;;;;;;16.44;72.50;97754.55;1730876;81;27367;-83
2021/08/14 00:09:57;;;;;;;12.90;10.40;;;;;;;16.45;72.60;97756.20;1753162;81;25713;-83
2021/08/14 00:12:23;;;;;;;13.32;10.58;;;;;;;16.39;72.63;97750.36;1726886;81;25710;-83
2021/08/14 00:14:50;;;;;;;12.90;9.55;;;;;;;16.38;72.75;97767.78;1723035;81;26365;-84
2021/08/14 00:17:16;;;;;;;11.43;9.00;;;;;;;16.33;72.70;97764.92;1725304;81;26324;-83
2021/08/14 00:19:43;;;;;;;13.22;10.48;;;;;;;16.30;72.75;97766.80;1752958;81;28163;-83
2021/08/14 00:22:10;;;;;;;10.65;9.45;;;;;;;16.19;72.80;97766.54;1731817;81;25479;-83
2021/08/14 00:24:36;;;;;;;12.68;10.18;;;;;;;16.18;73.04;97767.61;1722852;81;26498;-83
2021/08/14 00:27:03;;;;;;;13.28;9.38;;;;;;;16.17;73.10;97771.42;1709988;83;25677;-83
2021/08/14 00:29:30;;;;;;;14.03;10.65;;;;;;;16.11;73.06;97761.47;1731872;81;25687;-83
2021/08/14 00:31:56;;;;;;;14.55;9.70;;;;;;;16.10;73.25;97756.25;1735577;81;27340;-83
2021/08/14 00:34:23;;;;;;;11.80;10.08;;;;;;;16.12;73.23;97765.02;1747519;81;25878;-83
2021/08/14 00:36:49;;;;;;;12.40;9.78;;;;;;;16.11;73.25;97764.19;1740194;81;25781;-83
2021/08/14 00:39:16;;;;;;;12.75;9.33;;;;;;;16.06;73.31;97766.78;1713868;81;26369;-83
2021/08/14 00:41:43;;;;;;;11.85;9.93;;;;;;;16.06;73.41;97764.06;1703697;83;25816;-83
2021/08/14 00:44:10;;;;;;;12.30;10.25;;;;;;;16.08;73.39;97761.93;1701812;83;27276;-83
2021/08/14 00:46:37;;;;;;;13.22;10.70;;;;;;;16.07;73.42;97766.25;1736801;82;25690;-83
2021/08/14 00:49:04;;;;;;;15.30;10.05;;;;;;;15.98;73.39;97760.34;1722976;83;25287;-83
2021/08/14 00:51:30;;;;;;;13.20;10.55;;;;;;;15.93;73.61;97757.52;1745911;81;26459;-83
2021/08/14 00:53:57;;;;;;;13.88;10.13;;;;;;;15.92;73.75;97746.33;1722947;81;25769;-83
2021/08/14 00:56:27;;;;;;;12.20;9.93;;;;;;;15.94;73.83;97756.43;1723022;81;28020;-83
2021/08/14 00:58:54;;;;;;;15.72;11.35;;;;;;;15.92;73.82;97747.70;1697781;83;25671;-83
2021/08/14 01:01:27;;;;;;;13.78;10.95;;;;;;;15.92;73.99;97754.50;1731651;81;25732;-83
2021/08/14 01:03:57;;;;;;;14.53;10.53;;;;;;;15.87;74.05;97748.92;1722106;81;26413;-83
2021/08/14 01:06:25;;;;;;;15.20;11.93;;;;;;;15.78;74.14;97752.55;1714295;81;25815;-84
2021/08/14 01:08:55;;;;;;;12.47;10.25;;;;;;;15.70;74.26;97745.23;1728422;81;28202;-84
2021/08/14 01:11:22;;;;;;;12.73;11.15;;;;;;;15.73;74.49;97744.24;1736467;80;25726;-84
2021/08/14 01:13:50;;;;;;;15.63;11.50;;;;;;;15.76;74.55;97746.50;1751135;81;25282;-83
2021/08/14 01:16:17;;;;;;;12.05;10.80;;;;;;;15.72;74.58;97732.23;1734317;81;25674;-83
2021/08/14 01:18:45;;;;;;;16.73;11.03;;;;;;;15.71;74.71;97738.20;1732996;81;25718;-83
2021/08/14 01:21:22;;;;;;;13.40;10.88;;;;;;;15.78;74.82;97735.38;1753358;81;28658;-83
2021/08/14 01:23:54;;;;;;;12.00;10.75;;;;;;;15.71;74.63;97725.13;1721502;83;25827;-84
2021/08/14 01:26:22;;;;;;;14.87;10.80;;;;;;;15.67;74.73;97730.77;1707673;82;31147;-83
2021/08/14 01:28:51;;;;;;;15.45;10.28;;;;;;;15.67;74.94;97725.32;1706375;83;25715;-83
2021/08/14 01:31:19;;;;;;;14.23;11.15;;;;;;;15.59;74.97;97722.93;1734637;81;25742;-83
2021/08/14 01:33:46;;;;;;;14.35;11.20;;;;;;;15.49;75.27;97719.41;1699104;81;27394;-83
2021/08/14 01:36:16;;;;;;;15.90;11.30;;;;;;;15.40;75.56;97718.93;1753065;81;25777;-83
2021/08/14 01:38:53;;;;;;;16.15;12.00;;;;;;;15.39;75.72;97717.80;1748465;81;25772;-83
2021/08/14 01:41:21;;;;;;;15.20;11.43;;;;;;;15.40;75.86;97723.01;1738898;81;25906;-83
2021/08/14 01:44:04;;;;;;;18.50;11.83;;;;;;;15.39;75.94;97722.70;1740305;81;25755;-84
2021/08/14 01:46:34;;;;;;;13.90;11.33;;;;;;;15.44;75.97;97720.13;1746739;81;28183;-84
2021/08/14 01:49:02;;;;;;;14.00;11.50;;;;;;;15.46;75.91;97717.14;1739609;81;25810;-83
2021/08/14 01:51:31;;;;;;;16.50;11.57;;;;;;;15.40;75.84;97712.13;1738278;81;25703;-82
2021/08/14 01:53:59;;;;;;;12.75;11.40;;;;;;;15.35;75.99;97718.79;1738056;81;26158;-83
2021/08/14 01:56:27;;;;;;;13.85;12.15;;;;;;;15.34;76.24;97718.48;1731790;81;25708;-84
2021/08/14 01:58:55;;;;;;;15.28;12.53;;;;;;;15.32;76.47;97713.02;1744888;81;28143;-83
2021/08/14 02:01:22;;;;;;;13.88;11.80;;;;;;;15.35;76.58;97720.15;1738234;81;25916;-83
2021/08/14 02:03:48;;;;;;;15.18;11.28;;;;;;;15.44;76.59;97718.77;1738271;81;25683;-84
2021/08/14 02:06:20;;;;;;;15.35;11.83;;;;;;;15.48;76.41;97715.86;1748800;81;26257;-83
2021/08/14 02:08:48;;;;;;;17.95;12.55;;;;;;;15.47;76.24;97718.27;1747480;81;25796;-83
2021/08/14 02:11:22;;;;;;;12.45;10.85;;;;;;;15.46;76.29;97717.14;1749989;81;28030;-84
2021/08/14 02:13:51;;;;;;;14.68;11.15;;;;;;;15.45;76.33;97719.59;1738000;81;25730;-83
2021/08/14 02:16:18;;;;;;;16.67;12.40;;;;;;;15.48;76.45;97720.46;1751644;81;26406;-83
2021/08/14 02:18:45;;;;;;;13.60;11.90;;;;;;;15.51;76.57;97724.08;1745527;81;25882;-83
2021/08/14 02:21:12;;;;;;;13.40;12.00;;;;;;;15.56;76.61;97716.63;1738209;81;25774;-83
2021/08/14 02:23:39;;;;;;;14.03;12.60;;;;;;;15.62;76.78;97711.58;1744583;81;27354;-84
2021/08/14 02:26:06;;;;;;;13.55;12.03;;;;;;;15.67;76.74;97715.80;1752589;81;25898;-83
2021/08/14 02:28:33;;;;;;;14.93;11.90;;;;;;;15.71;76.66;97716.95;1738460;81;25817;-83
2021/08/14 02:31:01;;;;;;;15.68;11.25;;;;;;;15.76;76.53;97706.20;1747947;81;25715;-83
2021/08/14 02:33:30;;;;;;;17.40;11.93;;;;;;;15.79;76.47;97707.10;1739339;81;25750;-82
2021/08/14 02:35:56;;;;;;;14.20;12.70;;;;;;;15.79;76.47;97707.92;1738308;81;28461;-84
2021/08/14 02:38:23;;;;;;;17.48;11.88;;;;;;;15.80;76.48;97708.76;1737999;81;25751;-83
2021/08/14 02:40:49;;;;;;;13.98;11.90;;;;;;;15.80;76.52;97702.78;1740042;81;25715;-83
2021/08/14 02:43:17;;;;;;;14.07;11.97;;;;;;;15.81;76.51;97693.55;1744134;81;25861;-84
2021/08/14 02:45:45;;;;;;;15.72;12.03;;;;;;;15.80;76.53;97693.79;1727983;82;26683;-82
2021/08/14 02:48:13;;;;;;;13.75;11.90;;;;;;;15.69;76.67;97690.54;1718508;82;27483;-84
2021/08/14 02:50:42;;;;;;;13.70;12.30;;;;;;;15.61;76.88;97681.35;1726822;81;25840;-82
2021/08/14 02:53:09;;;;;;;20.37;12.23;;;;;;;15.55;77.05;97679.59;1716575;82;25737;-83
2021/08/14 02:55:36;;;;;;;15.50;11.95;;;;;;;15.50;77.14;97677.00;1728604;82;25770;-83
2021/08/14 02:58:03;;;;;;;16.20;12.45;;;;;;;15.48;77.21;97672.33;1736009;82;25788;-83
2021/08/14 03:00:29;;;;;;;14.00;11.88;;;;;;;15.45;77.23;97672.82;1736513;82;27421;-83
2021/08/14 03:02:56;;;;;;;15.98;12.05;;;;;;;15.47;77.37;97674.75;1739649;82;25722;-84
2021/08/14 03:05:23;;;;;;;15.13;12.40;;;;;;;15.46;77.44;97675.81;1733582;82;25733;-83
2021/08/14 03:07:49;;;;;;;17.75;12.98;;;;;;;15.43;77.50;97679.55;1725123;81;25734;-83
2021/08/14 03:10:16;;;;;;;17.40;13.20;;;;;;;15.45;77.59;97672.82;1732472;82;25695;-83
2021/08/14 03:12:43;;;;;;;21.48;14.80;;;;;;;15.52;77.59;97671.86;1737627;82;28028;-83
2021/08/14 03:15:11;;;;;;;21.68;14.18;;;;;;;15.54;77.51;97669.73;1728238;82;25250;-83
2021/08/14 03:17:37;;;;;;;18.65;13.28;;;;;;;15.50;77.48;97666.13;1746461;82;25721;-83
2021/08/14 03:20:08;;;;;;;21.10;13.75;;;;;;;15.45;77.54;97668.73;1717332;81;25837;-83
2021/08/14 03:22:34;;;;;;;18.70;14.23;;;;;;;15.42;77.75;97672.45;1716782;82;25695;-83
2021/08/14 03:25:01;;;;;;;16.32;13.83;;;;;;;15.37;77.79;97674.51;1723763;82;28058;-83
2021/08/14 03:27:28;;;;;;;16.95;12.68;;;;;;;15.38;77.97;97669.90;1746229;82;25853;-83
2021/08/14 03:29:54;;;;;;;16.00;13.53;;;;;;;15.41;78.24;97682.50;1742256;82;25705;-83
2021/08/14 03:32:21;;;;;;;18.52;13.30;;;;;;;15.45;78.26;97678.27;1716301;82;25767;-83
2021/08/14 03:34:47;;;;;;;15.88;13.45;;;;;;;15.52;78.29;97680.02;1717648;82;25822;-83
2021/08/14 03:37:14;;;;;;;21.80;13.15;;;;;;;15.57;78.26;97691.91;1736019;82;27200;-83
2021/08/14 03:39:41;;;;;;;17.45;14.45;;;;;;;15.63;78.21;97683.30;1716528;82;25963;-83
2021/08/14 03:42:07;;;;;;;15.98;12.78;;;;;;;15.73;78.14;97694.42;1737587;82;25733;-83
2021/08/14 03:44:34;;;;;;;17.25;13.45;;;;;;;15.80;78.15;97689.70;1739104;81;25734;-83
2021/08/14 03:47:00;;;;;;;17.98;14.33;;;;;;;15.87;78.15;97701.29;1759689;81;25793;-84
2021/08/14 03:49:27;;;;;;;19.87;14.63;;;;;;;15.93;78.21;97688.10;1761592;81;27530;-83
2021/08/14 03:51:53;;;;;;;17.62;13.25;;;;;;;15.93;78.12;97684.55;1760090;81;25784;-83
2021/08/14 03:54:20;;;;;;;14.98;12.73;;;;;;;15.96;78.10;97692.22;1752181;81;25771;-83
2021/08/14 03:56:47;;;;;;;17.57;13.80;;;;;;;16.02;78.19;97703.53;1761471;81;26315;-85
2021/08/14 03:59:13;;;;;;;19.20;13.45;;;;;;;16.07;78.09;97697.64;1757603;81;25752;-85
2021/08/14 04:01:40;;;;;;;14.80;13.20;;;;;;;16.11;78.08;97686.58;1746325;81;28546;-85
2021/08/14 04:04:07;;;;;;;17.07;12.88;;;;;;;16.14;78.14;97690.19;1745836;81;25815;-85
2021/08/14 04:06:33;;;;;;;17.40;13.58;;;;;;;16.20;78.15;97686.49;1753323;81;25744;-87
2021/08/14 04:09:00;;;;;;;17.35;13.78;;;;;;;16.25;78.18;97695.84;1746317;81;25778;-86
2021/08/14 04:11:26;;;;;;;19.15;13.55;;;;;;;16.29;78.25;97713.38;1750188;81;25672;-88
2021/08/14 04:13:53;;;;;;;16.95;13.05;;;;;;;16.35;78.20;97715.13;1741540;81;27366;-87
2021/08/14 04:16:19;;;;;;;19.35;13.05;;;;;;;16.38;78.17;97716.02;1758941;81;25763;-85
2021/08/14 04:18:46;;;;;;;18.15;13.28;;;;;;;16.39;78.28;97710.86;1761479;81;25745;-86
2021/08/14 04:21:13;;;;;;;15.32;13.72;;;;;;;16.42;78.31;97732.19;1758210;81;25818;-84
2021/08/14 04:23:39;;;;;;;15.83;13.68;;;;;;;16.48;78.44;97761.17;1753891;81;25782;-83
2021/08/14 04:26:06;;;;;;;15.38;13.43;;;;;;;16.50;78.33;97776.76;1761057;81;26570;-83
2021/08/14 04:28:32;;;;;;;18.45;13.62;;;;;;;16.49;78.32;97762.30;1761299;81;25693;-83
2021/08/14 04:30:59;;;;;;;16.10;13.75;;;;;;;16.41;78.27;97761.33;1761386;81;25696;-83
2021/08/14 04:33:25;;;;;;;19.75;14.20;;;;;;;16.33;78.65;97749.41;1761508;81;25784;-83
2021/08/14 04:35:52;;;;;;;21.77;13.78;;;;;;;16.28;78.88;97739.78;1761511;81;25684;-85
2021/08/14 04:38:19;;;;;;;15.38;13.40;;;;;;;16.27;79.28;97742.75;1758286;81;27863;-86
2021/08/14 04:40:45;;;;;;;23.00;13.15;;;;;;;16.24;79.49;97752.75;1747580;81;26553;-84
2021/08/14 04:43:12;;;;;;;17.12;14.40;;;;;;;16.22;79.48;97765.24;1757444;81;25771;-85
2021/08/14 04:45:39;;;;;;;17.12;13.40;;;;;;;16.27;79.47;97769.98;1744788;81;25761;-85
2021/08/14 04:48:06;;;;;;;20.23;14.43;;;;;;;16.33;79.50;97770.38;1741661;81;26500;-85
2021/08/14 04:50:32;;;;;;;17.27;14.83;;;;;;;16.38;79.49;97775.95;1738284;81;26827;-88
2021/08/14 04:52:59;;;;;;;18.65;14.98;;;;;;;16.41;79.53;97766.77;1728887;81;25748;-87
2021/08/14 04:55:25;;;;;;;22.07;15.38;;;;;;;16.42;79.67;97758.86;1744559;80;25631;-85
2021/08/14 04:57:52;;;;;;;18.45;15.90;;;;;;;16.41;79.75;97740.89;1722674;82;25769;-85
2021/08/14 05:00:19;;;;;;;20.15;15.75;;;;;;;16.45;79.80;97754.30;1724995;82;25658;-85
2021/08/14 05:02:45;;;;;;;18.32;15.13;;;;;;;16.50;79.84;97765.33;1730104;81;28848;-84
2021/08/14 05:05:12;;;;;;;16.57;14.87;;;;;;;16.57;80.04;97771.98;1750888;81;25889;-85
2021/08/14 05:07:38;;;;;;;17.37;14.85;;;;;;;16.62;80.10;97772.64;1723816;81;25723;-86
2021/08/14 05:10:06;;;;;;;16.90;15.10;;;;;;;16.67;80.21;97765.41;1736330;81;25930;-85
2021/08/14 05:12:33;;;;;;;22.10;16.62;;;;;;;16.71;80.17;97769.33;1736898;81;25672;-86
2021/08/14 05:14:59;;;;;;;17.82;15.48;;;;;;;16.75;80.26;97773.23;1724072;81;27570;-85
2021/08/14 05:17:26;;;;;;;22.02;15.20;;;;;;;16.75;80.36;97766.42;1725498;81;26485;-85
2021/08/14 05:19:52;;;;;;;17.12;15.08;;;;;;;16.76;80.43;97753.62;1750761;81;25301;-85
2021/08/14 05:22:19;;;;;;;19.95;15.53;;;;;;;16.79;80.58;97759.92;1731076;81;25841;-84
2021/08/14 05:24:47;;;;;;;18.20;16.30;;;;;;;16.83;80.58;97759.21;1728185;81;25765;-84
2021/08/14 05:27:13;;;;;;;20.10;15.90;;;;;;;16.89;80.63;97758.25;1729113;81;27431;-84
2021/08/14 05:29:40;;;;;;;17.85;15.83;;;;;;;16.92;80.70;97746.02;1739669;81;25711;-85
2021/08/14 05:32:08;;;;;;;17.82;15.55;;;;;;;16.95;80.79;97743.34;1750483;81;25418;-84
2021/08/14 05:34:34;;;;;;;20.52;14.80;;;;;;;16.98;80.83;97740.13;1745012;81;25790;-88
2021/08/14 05:37:01;;;;;;;17.70;14.33;;;;;;;17.02;80.90;97735.86;1737059;81;25799;-87
2021/08/14 05:39:27;;;;;;;15.00;13.28;;;;;;;17.08;81.04;97736.23;1750399;81;28239;-84
2021/08/14 05:41:54;;;;;;;18.05;14.38;;;;;;;17.12;81.07;97730.58;1746816;81;25713;-84
2021/08/14 05:44:21;;;;;;;16.82;13.90;;;;;;;17.17;81.13;97737.48;1750262;81;25683;-84
2021/08/14 05:46:48;;;;;;;17.85;14.87;;;;;;;17.18;81.30;97729.05;1743674;81;25824;-84
2021/08/14 05:49:15;;;;;;;17.17;15.18;;;;;;;17.23;81.34;97731.05;1741771;81;26241;-84
2021/08/14 05:51:41;;;;;;;18.82;15.23;;;;;;;17.26;81.34;97736.02;1745711;81;27371;-84
2021/08/14 05:54:08;;;;;;;21.25;15.70;;;;;;;17.33;81.35;97730.40;1737358;81;25789;-84
2021/08/14 05:56:34;;;;;;;17.92;14.78;;;;;;;17.38;81.35;97732.69;1722836;81;25840;-84
2021/08/14 05:59:02;;;;;;;17.37;14.90;;;;;;;17.44;81.38;97728.96;1725869;81;25749;-84
2021/08/14 06:01:29;;;;;;;20.30;14.98;;;;;;;17.47;81.46;97735.30;1751046;81;25690;-84
2021/08/14 06:03:56;;;;;;;16.25;14.55;;;;;;;17.54;81.43;97732.39;1721933;81;27347;-84
2021/08/14 06:06:22;;;;;;;16.27;12.88;;;;;;;17.58;81.43;97735.75;1732579;81;25747;-84
2021/08/14 06:08:49;;;;;;;15.85;13.05;;;;;;;17.62;81.63;97731.46;1747091;81;25725;-84
2021/08/14 06:11:15;;;;;;;16.37;13.53;;;;;;;17.66;81.63;97732.34;1729902;81;26539;-84
2021/08/14 06:13:42;;;;;;;16.52;14.10;;;;;;;17.70;81.63;97740.33;1743040;81;25799;-84
2021/08/14 06:16:12;;;;;;;14.75;13.30;;;;;;;17.75;81.55;97741.79;1748434;81;27588;-85
2021/08/14 06:18:41;;;;;;;16.57;12.73;;;;;;;17.79;81.61;97740.20;1735647;81;25303;-85
2021/08/14 06:21:09;;;;;;;15.18;13.48;;;;;;;17.83;81.69;97741.36;1750936;81;25742;-85
2021/08/14 06:23:36;;;;;;;18.40;13.68;;;;;;;17.88;81.74;97744.98;1750707;81;25761;-85
2021/08/14 06:26:03;;;;;;;16.37;14.38;;;;;;;17.93;81.94;97745.61;1746531;81;25256;-85
2021/08/14 06:28:31;;;;;;;18.70;15.00;;;;;;;17.96;82.00;97749.21;1750827;81;28579;-85
2021/08/14 06:30:58;;;;;;;20.05;14.20;;;;;;;18.00;81.96;97748.98;1742425;81;25898;-84
2021/08/14 06:33:25;;;;;;;19.32;15.90;;;;;;;18.03;82.07;97747.13;1750844;81;25781;-83
2021/08/14 06:35:51;;;;;;;23.12;17.67;;;;;;;18.06;82.02;97741.16;1750800;81;26717;-83
2021/08/14 06:38:18;;;;;;;20.55;16.60;;;;;;;18.09;81.98;97739.30;1721537;81;25679;-84
2021/08/14 06:40:44;;;;;;;18.95;15.80;;;;;;;18.13;81.93;97734.97;1723074;81;27360;-86
2021/08/14 06:43:11;;;;;;;17.87;14.28;;;;;;;18.20;81.88;97737.00;1727494;81;26020;-87
2021/08/14 06:45:37;;;;;;;16.50;14.33;;;;;;;18.27;81.91;97729.98;1726468;81;25852;-85
2021/08/14 06:48:05;;;;;;;18.30;14.93;;;;;;;18.38;81.99;97729.57;1732143;81;25734;-86
2021/08/14 06:50:31;;;;;;;17.12;15.13;;;;;;;18.51;82.07;97726.46;1727608;81;25691;-85
2021/08/14 06:52:58;;;;;;;16.93;15.10;;;;;;;18.64;82.26;97728.84;1731129;81;27475;-88
2021/08/14 06:55:26;;;;;;;17.52;13.75;;;;;;;18.78;82.40;97724.65;1717244;83;25690;-84
2021/08/14 06:57:53;;;;;;;17.37;12.35;;;;;;;18.93;82.30;97728.10;1700518;82;25912;-83
2021/08/14 07:00:19;;;;;;;15.40;13.58;;;;;;;19.05;81.98;97725.50;1739997;81;25731;-84
2021/08/14 07:02:46;;;;;;;16.32;13.25;;;;;;;19.18;81.96;97727.00;1709810;81;25869;-85
2021/08/14 07:05:13;;;;;;;13.38;11.35;;;;;;;19.31;82.00;97731.23;1735942;81;27410;-82
2021/08/14 07:07:39;;;;;;;12.65;11.35;;;;;;;19.40;81.76;97718.72;1728282;81;25826;-87
2021/08/14 07:10:08;;;;;;;12.50;11.20;;;;;;;19.50;81.58;97729.78;1724008;82;25978;-84
2021/08/14 07:12:34;;;;;;;11.03;9.93;;;;;;;19.61;81.43;97727.41;1711379;82;25718;-82
2021/08/14 07:15:03;;;;;;;12.65;9.08;;;;;;;19.74;81.26;97726.14;1748118;81;25706;-83
2021/08/14 07:17:31;;;;;;;10.72;9.58;;;;;;;19.87;80.97;97728.44;1717389;83;27392;-88
2021/08/14 07:19:57;;;;;;;10.32;8.28;;;;;;;20.02;80.94;97726.36;1722782;83;25725;-89
2021/08/14 07:22:24;;;;;;;12.98;8.10;;;;;;;20.22;80.88;97730.59;1722738;83;25740;-83
2021/08/14 07:24:51;;;;;;;10.45;8.08;;;;;;;20.36;80.49;97726.86;1733275;81;26546;-92
2021/08/14 07:27:18;;;;;;;11.10;9.23;;;;;;;20.47;80.06;97726.64;1750795;81;26426;-86
2021/08/14 07:29:44;;;;;;;10.25;8.45;;;;;;;20.57;80.11;97716.80;1753638;81;27433;-84
2021/08/14 07:32:11;;;;;;;10.18;8.30;;;;;;;20.66;80.16;97715.19;1740390;81;26239;-84
2021/08/14 07:34:38;;;;;;;10.00;8.13;;;;;;;20.73;79.93;97706.19;1735296;81;25896;-81
2021/08/14 07:37:05;;;;;;;11.20;8.48;;;;;;;20.89;79.78;97711.98;1736175;81;25705;-91
2021/08/14 07:39:31;;;;;;;9.05;8.15;;;;;;;21.07;79.82;97709.29;1753239;81;25795;-89
2021/08/14 07:41:58;;;;;;;10.45;8.58;;;;;;;21.27;79.66;97707.15;1721430;83;28194;-89
2021/08/14 07:44:25;;;;;;;10.78;8.58;;;;;;;21.50;79.27;97707.99;1722451;82;25806;-90
2021/08/14 07:46:51;;;;;;;11.08;8.40;;;;;;;21.89;78.58;97687.10;1737010;81;25755;-92
2021/08/14 07:49:18;;;;;;;10.20;8.13;;;;;;;21.89;78.58;97687.10;1739646;81;25725;-91
2021/08/14 07:51:45;;;;;;;10.43;8.00;;;;;;;22.22;77.57;97704.09;1740374;81;25479;-93
2021/08/14 07:54:11;;;;;;;9.03;7.67;;;;;;;22.22;77.57;97704.09;1714442;83;27636;-87
2021/08/14 07:56:38;;;;;;;10.32;8.85;;;;;;;22.25;77.15;97703.55;1752941;81;25824;-90
2021/08/14 07:59:04;;;;;;;8.55;7.67;;;;;;;22.31;77.29;97705.20;1748625;81;25813;-90
2021/08/14 08:01:32;;;;;;;9.23;7.85;;;;;;;22.40;77.37;97696.64;1713930;83;45536;-89
2021/08/14 08:03:59;;;;;;;10.65;7.62;;;;;;;22.66;76.91;97697.36;1739025;81;25797;-89
2021/08/14 08:06:25;;;;;;;13.58;8.05;;;;;;;22.93;76.11;97695.06;1753047;81;26789;-90
2021/08/14 08:08:52;;;;;;;10.23;7.20;;;;;;;23.03;75.27;97688.67;1741675;81;26521;-88
2021/08/14 08:11:18;;;;;;;14.23;7.50;;;;;;;23.30;74.61;97689.05;1727983;81;25793;-89
2021/08/14 08:13:45;;;;;;;8.53;7.37;;;;;;;23.56;73.87;97690.24;1738172;81;25764;-89
2021/08/14 08:16:12;;;;;;;10.20;7.05;;;;;;;23.90;73.47;97689.69;1748632;81;25781;-89
2021/08/14 08:18:38;;;;;;;8.65;7.25;;;;;;;24.26;72.84;97694.87;1730063;81;27639;-89
2021/08/14 08:21:05;;;;;;;8.60;6.83;;;;;;;24.58;72.73;97688.14;1724515;81;25762;-89
2021/08/14 08:23:35;;;;;;;6.92;6.20;;;;;;;24.87;72.28;97685.85;1723876;81;25256;-87
2021/08/14 08:26:01;;;;;;;8.28;6.45;;;;;;;25.18;71.39;97697.31;1724581;81;26465;-87
2021/08/14 08:28:28;;;;;;;7.58;6.72;;;;;;;25.52;69.93;97690.97;1723875;81;26251;-89
2021/08/14 08:30:54;;;;;;;8.03;6.28;;;;;;;25.81;68.96;97688.88;1723071;81;27408;-91
2021/08/14 08:33:21;;;;;;;7.25;6.42;;;;;;;25.91;68.42;97680.95;1709318;82;26334;-91
2021/08/14 08:35:48;;;;;;;12.07;6.12;;;;;;;26.10;68.11;97683.64;1738061;81;25737;-87
2021/08/14 08:38:14;;;;;;;6.75;6.00;;;;;;;26.15;67.80;97685.77;1695886;83;25894;-87
2021/08/14 08:40:42;;;;;;;6.62;5.35;;;;;;;26.18;67.27;97676.86;1710072;81;25804;-86
2021/08/14 08:43:10;;;;;;;6.20;5.60;;;;;;;26.25;67.09;97675.06;1746235;81;27366;-88
2021/08/14 08:45:36;;;;;;;7.40;6.28;;;;;;;26.36;66.35;97666.03;1739553;81;25586;-90
2021/08/14 08:48:05;;;;;;;6.80;6.10;;;;;;;26.53;65.95;97675.94;1736360;81;25869;-88
2021/08/14 08:50:32;;;;;;;6.85;6.15;;;;;;;26.60;65.71;97665.25;1749730;80;26343;-88
2021/08/14 08:52:59;;;;;;;7.08;6.40;;;;;;;26.75;65.50;97664.94;1725749;81;25684;-89
2021/08/14 08:55:25;;;;;;;7.20;5.97;;;;;;;26.98;65.11;97658.11;1715495;81;28054;-88
2021/08/14 08:57:52;;;;;;;7.62;6.60;;;;;;;27.12;64.80;97654.73;1728730;81;25731;-89
2021/08/14 09:00:19;;;;;;;6.92;6.22;;;;;;;27.23;64.46;97656.96;1702624;83;25751;-88
2021/08/14 09:02:47;;;;;;;7.67;6.15;;;;;;;27.34;64.03;97646.45;1711227;83;26455;-87
2021/08/14 09:05:20;;;;;;;9.10;6.60;;;;;;;27.36;63.21;97653.07;1712454;83;25865;-89
2021/08/14 09:07:49;;;;;;;8.30;6.10;;;;;;;27.35;62.66;97646.70;1720773;83;27353;-89
2021/08/14 09:10:21;;;;;;;6.83;6.10;;;;;;;27.38;62.42;97647.47;1731259;81;25972;-88
2021/08/14 09:12:47;;;;;;;9.85;6.17;;;;;;;27.46;62.47;97642.55;1720363;82;25839;-88
2021/08/14 09:15:29;;;;;;;7.92;5.78;;;;;;;27.68;62.40;97645.09;1731216;81;25774;-90
2021/08/14 09:18:04;;;;;;;8.73;6.37;;;;;;;27.90;61.74;97646.45;1718757;83;25801;-87
2021/08/14 09:20:34;;;;;;;7.95;5.80;;;;;;;28.06;60.54;97640.75;1722745;81;27371;-90
2021/08/14 09:23:10;;;;;;;6.30;5.70;;;;;;;28.05;60.63;97640.50;1751473;81;25868;-87
2021/08/14 09:25:43;;;;;;;7.97;5.70;;;;;;;28.13;60.20;97640.31;1733003;81;25334;-87
2021/08/14 09:28:13;;;;;;;6.90;5.97;;;;;;;28.18;59.26;97631.86;1748578;81;25855;-87
2021/08/14 09:30:55;;;;;;;9.63;6.28;;;;;;;28.12;58.56;97633.12;1738230;81;25726;-88
2021/08/14 09:33:26;;;;;;;7.85;6.10;;;;;;;28.01;58.56;97635.36;1700695;83;28326;-88
2021/08/14 09:36:01;;;;;;;11.63;5.87;;;;;;;27.91;58.03;97627.28;1738589;81;25833;-87
2021/08/14 09:38:47;;;;;;;10.58;6.67;;;;;;;27.97;57.87;97626.02;1716805;83;25813;-86
2021/08/14 09:41:22;;;;;;;7.08;6.15;;;;;;;28.03;58.24;97621.13;1743937;81;25858;-87
2021/08/14 09:43:52;;;;;;;8.88;6.03;;;;;;;28.06;58.07;97611.61;1732581;81;25767;-87
2021/08/14 09:46:18;;;;;;;8.53;6.80;;;;;;;28.21;57.76;97615.95;1727541;81;27194;-88
2021/08/14 09:48:56;;;;;;;7.65;6.80;;;;;;;28.46;57.07;97608.86;1732841;82;25790;-87
2021/08/14 09:51:33;;;;;;;9.50;6.10;;;;;;;28.67;56.78;97609.31;1720658;82;25469;-84
2021/08/14 09:54:05;;;;;;;8.43;5.92;;;;;;;28.86;56.90;97608.25;1732766;82;25715;-83
2021/08/14 09:56:37;;;;;;;;;;;;;;;29.01;56.67;97600.23;1723107;81;25651;-84
2021/08/14 09:59:03;;;;;;;8.08;5.85;;;;;;;29.21;55.44;97597.39;1716229;82;28256;-83
2021/08/14 10:01:35;;;;;;;7.25;5.95;;;;;;;29.40;55.58;97599.03;1716563;82;25739;-83
2021/08/14 10:04:03;;;;;;;7.53;6.72;;;;;;;29.55;55.47;97597.95;1737662;82;25751;-85
2021/08/14 10:06:30;;;;;;;7.80;7.03;;;;;;;29.69;55.19;97599.98;1732813;82;26356;-85
2021/08/14 10:08:57;;;;;;;16.20;11.50;;;;;;;29.78;55.12;97594.96;1723986;81;25809;-84
2021/08/14 10:11:25;;;;;;;20.80;14.55;;;;;;;29.92;54.52;97590.02;1727553;82;27582;-84
2021/08/14 10:13:51;;;;;;;16.15;14.45;;;;;;;30.04;55.00;97594.34;1746477;82;25705;-84
2021/08/14 10:16:19;;;;;;;14.00;12.15;;;;;;;30.20;54.30;97598.76;1717304;82;25755;-86
2021/08/14 10:18:46;;;;;;;11.95;9.68;;;;;;;30.26;54.04;97585.73;1716823;82;26651;-85
2021/08/14 10:21:15;;;;;;;9.83;8.83;;;;;;;30.37;53.62;97582.80;1713739;83;25753;-84
2021/08/14 10:23:44;;;;;;;8.05;7.28;;;;;;;30.45;53.54;97578.33;1715104;83;28454;-84
2021/08/14 10:26:17;;;;;;;12.13;7.83;;;;;;;30.50;53.58;97581.50;1716581;82;25796;-85
2021/08/14 10:28:51;;;;;;;9.10;7.47;;;;;;;30.56;53.03;97578.78;1728615;82;25796;-84
2021/08/14 10:31:35;;;;;;;7.75;7.03;;;;;;;30.59;53.03;97575.33;1734981;82;25775;-83
2021/08/14 10:34:16;;;;;;;9.58;7.67;;;;;;;30.65;53.35;97574.00;1729764;82;25797;-85
2021/08/14 10:36:44;;;;;;;9.53;8.10;;;;;;;30.74;52.79;97571.38;1746364;81;27366;-86
2021/08/14 10:39:35;;;;;;;9.90;7.53;;;;;;;30.87;52.23;97568.09;1727533;81;26286;-84
2021/08/14 10:42:02;;;;;;;7.33;6.62;;;;;;;30.93;52.01;97558.36;1691227;83;25752;-84
2021/08/14 10:44:48;;;;;;;8.45;7.62;;;;;;;30.99;51.82;97558.98;1726437;82;25766;-84
2021/08/14 10:47:40;;;;;;;9.53;7.30;;;;;;;31.02;51.15;97554.95;1734156;81;25745;-83
2021/08/14 10:50:07;;;;;;;7.55;6.78;;;;;;;31.02;51.03;97545.20;1715898;83;27487;-83
2021/08/14 10:52:38;;;;;;;22.60;9.23;;;;;;;31.04;50.88;97537.28;1699849;83;26279;-85
2021/08/14 10:55:12;;;;;;;14.20;8.75;;;;;;;30.99;51.10;97537.50;1736110;81;25243;-85
2021/08/14 10:57:45;;;;;;;18.65;11.80;;;;;;;30.99;51.35;97536.11;1715487;83;26415;-85
2021/08/14 11:00:21;;;;;;;9.33;7.78;;;;;;;30.97;50.90;97532.84;1723327;81;25679;-86
2021/08/14 11:03:06;;;;;;;10.45;7.10;;;;;;;30.90;50.77;97536.77;1720495;81;27363;-85
2021/08/14 11:05:33;;;;;;;12.10;7.30;;;;;;;30.81;51.35;97527.64;1748881;81;25915;-86
2021/08/14 11:08:02;;;;;;;10.90;7.78;;;;;;;30.79;51.71;97534.16;1748369;81;25748;-85
2021/08/14 11:10:42;;;;;;;8.45;7.28;;;;;;;30.77;51.81;97528.92;1714026;83;25745;-86
2021/08/14 11:13:33;;;;;;;8.78;7.80;;;;;;;30.71;52.09;97525.27;1733443;82;25718;-85
2021/08/14 11:16:00;;;;;;;10.75;8.08;;;;;;;30.69;51.87;97525.59;1729853;82;27436;-85
2021/08/14 11:18:56;;;;;;;9.90;7.67;;;;;;;30.62;51.67;97518.95;1723013;83;25962;-85
2021/08/14 11:21:43;;;;;;;9.60;8.13;;;;;;;30.41;52.10;97519.72;1704551;82;25742;-85
2021/08/14 11:24:10;;;;;;;11.55;7.45;;;;;;;30.15;52.41;97523.23;1668786;83;26486;-85
2021/08/14 11:26:39;;;;;;;10.05;7.97;;;;;;;29.91;52.30;97525.19;1742244;81;25967;-86